Flight Track Log - Related Links

Times and Time Zones

All times are in EDT time to prevent confusion due to time zone crossing. See the EJA931 flight status page for this flight to view local times or setup timezone preferences in your user account.

Time Position Orientation Groundspeed Altitude Reporting Facility
EDT Latitude Longitude Course Direction KTS MPH feet Rate Location/Type
Thu 05:31:27 PM 39.9136 -84.2119 North 173 199 1,500  Level Indianapolis Center
Thu 05:32:57 PM 40.0136 -84.2025 North 280 322 5,200 2,106 Climbing Indianapolis Center
Thu 05:33:58 PM 40.0783 -84.1456 34° Northeast 288 331 6,800 931 Climbing Indianapolis Center
Thu 05:34:53 PM 40.0919 -84.0575 79° East 288 331 7,000 141 Climbing Indianapolis Center
Thu 05:35:23 PM 40.0883 -84.0114 96° East 283 326 7,000  Level Indianapolis Center
Thu 05:35:53 PM 40.0836 -83.9547 96° East 280 322 7,000  Level Indianapolis Center
Thu 05:36:24 PM 40.0803 -83.9097 96° East 279 321 7,000  Level Indianapolis Center
Thu 05:37:26 PM 40.0725 -83.8094 96° East 278 320 7,000  Level Indianapolis Center
Thu 05:38:27 PM 40.0644 -83.7083 96° East 277 319 7,000  Level Indianapolis Center
Thu 05:39:30 PM 40.0658 -83.6028 89° East 285 328 7,000  Level Indianapolis Center
Thu 05:40:31 PM 40.0767 -83.4981 82° East 288 331 7,000  Level Indianapolis Center
Thu 05:41:35 PM 40.0869 -83.3939 83° East 287 330 7,000  Level Indianapolis Center
Thu 05:42:35 PM 40.0972 -83.2908 83° East 284 327 7,000  Level Indianapolis Center
Thu 05:43:39 PM 40.1089 -83.1700 83° East 284 327 7,000 -96 Level Indianapolis Center
Thu 05:44:40 PM 40.1161 -83.0681 85° East 280 322 6,800 -492 Descending Indianapolis Center
Thu 05:45:41 PM 40.1128 -82.9678 92° East 275 316 6,000 -480 Descending Indianapolis Center
Thu 05:46:45 PM 40.1078 -82.8761 94° East 257 296 5,800 -823 Descending Indianapolis Center
Thu 05:47:45 PM 40.0944 -82.7997 103° East 223 257 4,300 -1,210 Descending Indianapolis Center
Thu 05:48:49 PM 40.0467 -82.7811 163° South 202 232 3,300 -871 Descending Indianapolis Center
Thu 05:49:49 PM 40.0003 -82.7897 188° South 181 208 2,500 -902 Descending Indianapolis Center
Thu 05:51:02 PM 39.9989 -82.8547 268° West 122 140 1,300 -629 Descending Indianapolis Center
Thu 05:51:53 PM 40.0028 -82.8861 279° West 140 161 1,200 -118 Descending Indianapolis Center
Thu 05:53:00 PM 39.9980 -82.8920 241° Southwest  Level Estimated

Login

Don't have an account? Register now (free) for customized features, flight alerts, and more!